Sunday, June 24, 2018, 8:42 PM EDT
Back to Local

KSYR, Syracuse Hancock International Airport

Location: Syracuse, NY, United States Lat: 43.117
Local Time: 8:42 PM EDT ( 0:42 GMT) Lon: -76.1
Time Zone: US/Eastern Elev: 410 ft

Show me the last for .
Show Decoded

2018-06-24 20:11 METAR KSYR 250011Z 30007KT 10SM -RA BKN009 OVC036 18/18 A2988 RMK AO2 RAB03
                 P0000 T01780178 =
2018-06-24 19:54 METAR KSYR 242354Z 30006KT 10SM BKN007 OVC041 18/18 A2987 RMK AO2 DZE42 SLP110
                 P0000 60005 T01780178 10211 20178 53013 =
2018-06-24 18:54 METAR KSYR 242254Z 31006KT 6SM -DZ BR BKN007 BKN033 OVC050 18/18 A2985 RMK AO2
                 DZE16B46RAB41E46 SLP105 P0001 T01780178 =
2018-06-24 18:46 METAR KSYR 242246Z 32006KT 7SM -DZ BKN007 BKN030 OVC038 18/18 A2985 RMK AO2
                 DZE16B46RAB41E46 P0000 T01780178 =
2018-06-24 17:54 METAR KSYR 242154Z 32007KT 9SM -DZ BKN008 OVC018 18/18 A2985 RMK AO2
                 RAB38E48DZB48 SLP103 P0000 T01780178 =
2018-06-24 17:34 METAR KSYR 242134Z 32008KT 10SM BKN008 OVC028 18/18 A2984 RMK AO2 T01830183 =
2018-06-24 16:54 METAR KSYR 242054Z 34009KT 10SM SCT008 BKN020 OVC065 19/19 A2983 RMK AO2 RAE43
                 SLP097 OVC V BKN P0000 60004 T01940189 53007 =
2018-06-24 16:20 METAR KSYR 242020Z 34010KT 10SM -RA FEW008 BKN016 OVC021 18/18 A2983 RMK AO2
                 P0000 T01830183 =
2018-06-24 16:00 METAR KSYR 242000Z 34010G19KT 10SM -RA SCT011 BKN020 OVC060 18/18 A2981 RMK AO2
                 P0000 T01830183 =
2018-06-24 15:54 METAR KSYR 241954Z 33014G19KT 10SM -RA SCT011 BKN023 OVC100 19/19 A2981 RMK AO2
                 SLP091 P0003 T01940194 =
2018-06-24 15:39 METAR KSYR 241939Z 32010KT 6SM -RA BR SCT009 BKN025 OVC110 19/19 A2981 RMK AO2
                 P0003 T01940194 =
2018-06-24 15:09 METAR KSYR 241909Z 31009KT 7SM -RA FEW009 BKN050 OVC100 19/19 A2981 =
2018-06-24 14:54 METAR KSYR 241854Z 33007KT 10SM -RA FEW012 BKN050 OVC110 20/19 A2981 RMK AO2
                 SLP091 P0001 T02000194 =
2018-06-24 13:54 METAR KSYR 241754Z 32004KT 10SM -RA FEW018 SCT030 OVC110 21/19 A2981 RMK AO2
                 RAB19 SLP089 P0000 60000 T02060189 10222 20172 57006 =
2018-06-24 13:21 METAR KSYR 241721Z 35004KT 10SM -RA SCT018 BKN026 OVC040 21/19 A2982 RMK AO2
                 RAB19 P0000 T02060189 =
2018-06-24 12:54 METAR KSYR 241654Z 33008KT 10SM SCT013 BKN017 OVC026 21/19 A2982 RMK AO2 SLP093
                 T02060189 =
2018-06-24 12:16 METAR KSYR 241616Z 00000KT 10SM BKN012 BKN070 BKN150 21/19 A2981 RMK AO2
                 T02110189 =
2018-06-24 12:04 METAR KSYR 241604Z 03003KT 10SM SCT012 BKN040 BKN070 BKN150 21/19 A2981 RMK AO2
                 T02110189 =
2018-06-24 11:54 METAR KSYR 241554Z 00000KT 10SM BKN010 BKN040 OVC070 21/19 A2982 RMK AO2 SLP092
                 T02110189 =
2018-06-24 11:37 METAR KSYR 241537Z 00000KT 10SM BKN010 OVC040 20/18 A2982 RMK AO2 T02000183 =
2018-06-24 10:54 METAR KSYR 241454Z 34003KT 10SM OVC005 19/18 A2983 RMK AO2 DZB12E49 SLP096 P0000
                 60000 T01890183 53008 =
2018-06-24 09:54 METAR KSYR 241354Z 00000KT 10SM OVC005 18/18 A2981 RMK AO2 DZE24 SLP091 P0000
                 T01780178 =
2018-06-24 08:54 METAR KSYR 241254Z 32005KT 10SM -DZ BKN007 OVC016 18/18 A2982 RMK AO2 DZB47
                 SLP093 P0000 T01780178 =
2018-06-24 07:54 METAR KSYR 241154Z 00000KT 10SM FEW007 OVC018 17/17 A2980 RMK AO2 RAE02 SLP088
                 P0001 60001 70001 T01720172 10172 20150 51009 =
2018-06-24 06:54 METAR KSYR 241054Z 27003KT 6SM -RA BR FEW006 OVC020 17/17 A2979 RMK AO2
                 RAB0955E20B46 SLP084 P0000 T01670167 =
2018-06-24 06:29 METAR KSYR 241029Z 00000KT 10SM FEW006 OVC021 17/17 A2978 RMK AO2 RAB0955E20
                 P0000 T01670167 =
2018-06-24 05:54 METAR KSYR 240954Z 00000KT 10SM SCT010 BKN021 OVC060 16/16 A2977 RMK AO2 SLP079
                 T01610156 =
2018-06-24 05:24 METAR KSYR 240924Z 00000KT 10SM FEW008 SCT012 OVC022 16/16 A2977 RMK AO2
                 T01610156 =
2018-06-24 04:54 METAR KSYR 240854Z 00000KT 10SM FEW008 OVC012 16/16 A2977 RMK AO2 SLP075
                 T01610156 51007 =
2018-06-24 04:49 METAR KSYR 240849Z 00000KT 10SM SCT008 OVC013 16/16 A2976 RMK AO2 =
2018-06-24 04:34 METAR KSYR 240834Z 00000KT 10SM BKN006 OVC013 16/16 A2976 RMK AO2 T01610156 =
2018-06-24 04:25 METAR KSYR 240825Z 00000KT 10SM SCT006 OVC013 16/16 A2977 RMK AO2 CIG 007 NW
                 T01610156 =
2018-06-24 03:54 METAR KSYR 240754Z 00000KT 10SM BKN014 OVC022 16/15 A2976 RMK AO2 SLP073
                 T01560150 =
2018-06-24 03:26 METAR KSYR 240726Z 07003KT 10SM BKN014 OVC022 16/15 A2975 RMK AO2 T01560150 =
2018-06-24 02:54 METAR KSYR 240654Z 09003KT 10SM BKN018 OVC024 16/15 A2975 RMK AO2 SLP071
                 T01560150 =
2018-06-24 02:09 METAR KSYR 240609Z 09003KT 10SM OVC020 15/15 A2975 RMK AO2 T01500150 =
2018-06-24 01:54 METAR KSYR 240554Z 07003KT 10SM BKN022 BKN033 BKN060 15/15 A2975 RMK AO2 SLP069
                 T01500150 10167 20144 58002 =
2018-06-24 01:41 METAR KSYR 240541Z 00000KT 10SM BKN022 BKN034 15/15 A2975 RMK AO2 T01500150 =
2018-06-24 00:54 METAR KSYR 240454Z 00000KT 10SM FEW030 SCT041 BKN060 BKN130 15/14 A2975 RMK AO2
                 SLP071 T01500144 402060144 =
2018-06-23 23:54 METAR KSYR 240354Z 09004KT 10SM SCT030 BKN035 BKN080 15/14 A2975 RMK AO2 SLP071
                 T01500144 =
2018-06-23 22:54 METAR KSYR 240254Z 08005KT 10SM SCT055 OVC080 15/14 A2975 RMK AO2 SLP071
                 T01500144 51004 =
2018-06-23 21:54 METAR KSYR 240154Z 09009KT 10SM FEW032 SCT039 OVC060 16/14 A2975 RMK AO2 SLP071
                 T01560144 =
2018-06-23 20:54 METAR KSYR 240054Z 08005KT 10SM SCT049 BKN055 OVC070 16/15 A2974 RMK AO2 CIG 048
                 NW SLP068 T01610150 =

Support USWX by starting your Amazon purchase here.